sensor_id;sensor_type;location;lat;lon;timestamp;pressure;altitude;pressure_sealevel;temperature;humidity
46534;BME280;32260;52.008;4.752;2023-05-16T00:02:09;102125.50;;;11.04;63.35
46534;BME280;32260;52.008;4.752;2023-05-16T00:04:35;102123.72;;;11.03;63.16
46534;BME280;32260;52.008;4.752;2023-05-16T00:07:02;102121.97;;;11.02;63.26
46534;BME280;32260;52.008;4.752;2023-05-16T00:09:28;102127.28;;;11.02;63.26
46534;BME280;32260;52.008;4.752;2023-05-16T00:11:54;102130.81;;;11.00;63.51
46534;BME280;32260;52.008;4.752;2023-05-16T00:14:21;102124.63;;;11.00;63.49
46534;BME280;32260;52.008;4.752;2023-05-16T00:16:47;102129.94;;;10.98;63.47
46534;BME280;32260;52.008;4.752;2023-05-16T00:19:13;102125.50;;;10.97;63.50
46534;BME280;32260;52.008;4.752;2023-05-16T00:21:40;102130.81;;;10.94;63.44
46534;BME280;32260;52.008;4.752;2023-05-16T00:24:06;102130.81;;;10.94;63.32
46534;BME280;32260;52.008;4.752;2023-05-16T00:26:32;102130.81;;;10.93;63.17
46534;BME280;32260;52.008;4.752;2023-05-16T00:28:58;102123.72;;;10.90;63.14
46534;BME280;32260;52.008;4.752;2023-05-16T00:31:24;102131.69;;;10.90;63.23
46534;BME280;32260;52.008;4.752;2023-05-16T00:33:50;102129.03;;;10.89;63.09
46534;BME280;32260;52.008;4.752;2023-05-16T00:36:17;102134.34;;;10.87;63.09
46534;BME280;32260;52.008;4.752;2023-05-16T00:38:43;102129.94;;;10.86;63.44
46534;BME280;32260;52.008;4.752;2023-05-16T00:41:09;102133.47;;;10.83;63.40
46534;BME280;32260;52.008;4.752;2023-05-16T00:43:35;102132.59;;;10.81;63.43
46534;BME280;32260;52.008;4.752;2023-05-16T00:46:01;102129.94;;;10.77;63.65
46534;BME280;32260;52.008;4.752;2023-05-16T00:48:28;102132.56;;;10.75;63.15
46534;BME280;32260;52.008;4.752;2023-05-16T00:50:54;102137.91;;;10.72;63.40
46534;BME280;32260;52.008;4.752;2023-05-16T00:53:22;102131.69;;;10.70;63.68
46534;BME280;32260;52.008;4.752;2023-05-16T00:55:48;102131.72;;;10.67;63.33
46534;BME280;32260;52.008;4.752;2023-05-16T00:58:15;102139.69;;;10.65;63.63
46534;BME280;32260;52.008;4.752;2023-05-16T01:00:41;102138.78;;;10.63;63.65
46534;BME280;32260;52.008;4.752;2023-05-16T01:03:07;102136.09;;;10.60;63.63
46534;BME280;32260;52.008;4.752;2023-05-16T01:05:33;102137.00;;;10.61;63.43
46534;BME280;32260;52.008;4.752;2023-05-16T01:07:59;102131.72;;;10.61;63.54
46534;BME280;32260;52.008;4.752;2023-05-16T01:10:30;102137.88;;;10.60;63.78
46534;BME280;32260;52.008;4.752;2023-05-16T01:15:52;102128.16;;;10.59;63.94
46534;BME280;32260;52.008;4.752;2023-05-16T01:18:46;102133.47;;;10.60;63.91
46534;BME280;32260;52.008;4.752;2023-05-16T01:21:29;102136.09;;;10.54;63.88
46534;BME280;32260;52.008;4.752;2023-05-16T01:24:07;102130.81;;;10.54;63.56
46534;BME280;32260;52.008;4.752;2023-05-16T01:26:35;102135.22;;;10.49;63.89
46534;BME280;32260;52.008;4.752;2023-05-16T01:29:01;102128.16;;;10.45;63.35
46534;BME280;32260;52.008;4.752;2023-05-16T01:31:31;102132.59;;;10.44;63.62
46534;BME280;32260;52.008;4.752;2023-05-16T01:33:57;102127.28;;;10.40;63.85
46534;BME280;32260;52.008;4.752;2023-05-16T01:36:29;102136.09;;;10.37;63.48
46534;BME280;32260;52.008;4.752;2023-05-16T01:47:13;102134.25;;;10.25;63.77
46534;BME280;32260;52.008;4.752;2023-05-16T01:50:03;102139.56;;;10.31;63.56
46534;BME280;32260;52.008;4.752;2023-05-16T01:52:50;102134.28;;;10.28;63.94
46534;BME280;32260;52.008;4.752;2023-05-16T01:55:47;102136.03;;;10.26;63.83
46534;BME280;32260;52.008;4.752;2023-05-16T01:58:14;102140.41;;;10.18;64.01
46534;BME280;32260;52.008;4.752;2023-05-16T02:00:41;102144.84;;;10.14;63.97
46534;BME280;32260;52.008;4.752;2023-05-16T02:03:07;102149.25;;;10.14;63.95
46534;BME280;32260;52.008;4.752;2023-05-16T02:05:34;102149.25;;;10.11;63.77
46534;BME280;32260;52.008;4.752;2023-05-16T02:08:00;102151.91;;;10.11;64.12
46534;BME280;32260;52.008;4.752;2023-05-16T02:10:27;102145.72;;;10.10;64.16
46534;BME280;32260;52.008;4.752;2023-05-16T02:12:53;102148.34;;;10.09;64.05
46534;BME280;32260;52.008;4.752;2023-05-16T02:15:20;102147.47;;;10.07;64.16
46534;BME280;32260;52.008;4.752;2023-05-16T02:17:46;102141.28;;;10.06;64.18
46534;BME280;32260;52.008;4.752;2023-05-16T02:20:13;102143.06;;;10.06;64.21
46534;BME280;32260;52.008;4.752;2023-05-16T02:22:39;102143.94;;;10.04;64.39
46534;BME280;32260;52.008;4.752;2023-05-16T02:25:08;102137.78;;;10.06;64.21
46534;BME280;32260;52.008;4.752;2023-05-16T02:27:34;102152.75;;;10.05;64.22
46534;BME280;32260;52.008;4.752;2023-05-16T02:30:01;102152.75;;;10.03;64.28
46534;BME280;32260;52.008;4.752;2023-05-16T02:32:27;102153.63;;;10.02;64.26
46534;BME280;32260;52.008;4.752;2023-05-16T02:34:53;102157.16;;;10.01;64.32
46534;BME280;32260;52.008;4.752;2023-05-16T02:37:19;102163.34;;;10.02;64.33
46534;BME280;32260;52.008;4.752;2023-05-16T02:39:45;102158.06;;;10.02;64.35
46534;BME280;32260;52.008;4.752;2023-05-16T02:42:11;102160.72;;;10.02;64.25
46534;BME280;32260;52.008;4.752;2023-05-16T02:44:38;102164.22;;;10.02;64.38
46534;BME280;32260;52.008;4.752;2023-05-16T02:47:04;102162.47;;;10.04;64.32
46534;BME280;32260;52.008;4.752;2023-05-16T02:49:30;102166.91;;;10.09;64.11
46534;BME280;32260;52.008;4.752;2023-05-16T02:51:56;102169.56;;;10.13;64.10
46534;BME280;32260;52.008;4.752;2023-05-16T02:54:22;102167.81;;;10.18;64.11
46534;BME280;32260;52.008;4.752;2023-05-16T02:56:48;102168.69;;;10.25;64.08
46534;BME280;32260;52.008;4.752;2023-05-16T02:59:14;102174.03;;;10.30;63.96
46534;BME280;32260;52.008;4.752;2023-05-16T03:01:41;102171.38;;;10.33;64.12
46534;BME280;32260;52.008;4.752;2023-05-16T03:04:07;102175.81;;;10.35;63.79
46534;BME280;32260;52.008;4.752;2023-05-16T03:06:33;102172.31;;;10.38;63.71
46534;BME280;32260;52.008;4.752;2023-05-16T03:08:59;102177.59;;;10.41;63.66
46534;BME280;32260;52.008;4.752;2023-05-16T03:11:26;102178.50;;;10.45;63.79
46534;BME280;32260;52.008;4.752;2023-05-16T03:13:53;102181.16;;;10.49;63.71
46534;BME280;32260;52.008;4.752;2023-05-16T03:16:19;102178.50;;;10.51;63.75
46534;BME280;32260;52.008;4.752;2023-05-16T03:18:46;102175.88;;;10.51;63.71
46534;BME280;32260;52.008;4.752;2023-05-16T03:21:12;102179.38;;;10.50;63.79
46534;BME280;32260;52.008;4.752;2023-05-16T03:23:39;102179.41;;;10.48;63.84
46534;BME280;32260;52.008;4.752;2023-05-16T03:26:05;102181.16;;;10.46;63.80
46534;BME280;32260;52.008;4.752;2023-05-16T03:28:31;102182.03;;;10.41;63.45
46534;BME280;32260;52.008;4.752;2023-05-16T03:30:57;102185.56;;;10.40;63.52
46534;BME280;32260;52.008;4.752;2023-05-16T03:33:23;102185.53;;;10.36;63.78
46534;BME280;32260;52.008;4.752;2023-05-16T03:35:50;102184.59;;;10.33;63.67
46534;BME280;32260;52.008;4.752;2023-05-16T03:38:17;102189.03;;;10.29;63.47
46534;BME280;32260;52.008;4.752;2023-05-16T03:40:43;102192.56;;;10.28;63.45
46534;BME280;32260;52.008;4.752;2023-05-16T03:43:09;102184.59;;;10.24;63.61
46534;BME280;32260;52.008;4.752;2023-05-16T03:45:35;102181.06;;;10.22;63.65
46534;BME280;32260;52.008;4.752;2023-05-16T03:48:01;102190.78;;;10.21;63.57
46534;BME280;32260;52.008;4.752;2023-05-16T03:50:28;102187.25;;;10.22;63.80
46534;BME280;32260;52.008;4.752;2023-05-16T03:52:54;102191.66;;;10.22;63.50
46534;BME280;32260;52.008;4.752;2023-05-16T03:55:20;102188.16;;;10.27;63.77
46534;BME280;32260;52.008;4.752;2023-05-16T03:57:46;102196.09;;;10.27;63.66
46534;BME280;32260;52.008;4.752;2023-05-16T04:00:15;102198.75;;;10.32;63.73
46534;BME280;32260;52.008;4.752;2023-05-16T04:02:41;102197.84;;;10.33;63.43
46534;BME280;32260;52.008;4.752;2023-05-16T04:05:09;102204.06;;;10.32;63.59
46534;BME280;32260;52.008;4.752;2023-05-16T04:07:36;102202.28;;;10.31;63.62
46534;BME280;32260;52.008;4.752;2023-05-16T04:10:03;102196.97;;;10.28;63.60
46534;BME280;32260;52.008;4.752;2023-05-16T04:12:29;102199.63;;;10.29;63.58
46534;BME280;32260;52.008;4.752;2023-05-16T04:14:56;102204.94;;;10.29;63.66
46534;BME280;32260;52.008;4.752;2023-05-16T04:17:22;102197.00;;;10.29;63.83
46534;BME280;32260;52.008;4.752;2023-05-16T04:19:48;102210.22;;;10.31;63.77
46534;BME280;32260;52.008;4.752;2023-05-16T04:22:14;102204.06;;;10.32;63.56
46534;BME280;32260;52.008;4.752;2023-05-16T04:24:41;102205.88;;;10.36;63.83
46534;BME280;32260;52.008;4.752;2023-05-16T04:27:09;102212.06;;;10.43;63.36
46534;BME280;32260;52.008;4.752;2023-05-16T04:29:36;102208.53;;;10.44;63.20
46534;BME280;32260;52.008;4.752;2023-05-16T04:32:02;102217.38;;;10.46;63.40
46534;BME280;32260;52.008;4.752;2023-05-16T04:34:28;102218.25;;;10.45;63.17
46534;BME280;32260;52.008;4.752;2023-05-16T04:36:55;102219.16;;;10.47;63.30
46534;BME280;32260;52.008;4.752;2023-05-16T04:39:21;102210.28;;;10.48;63.38
46534;BME280;32260;52.008;4.752;2023-05-16T04:41:48;102220.03;;;10.47;63.39
46534;BME280;32260;52.008;4.752;2023-05-16T04:44:14;102219.13;;;10.50;63.00
46534;BME280;32260;52.008;4.752;2023-05-16T04:46:40;102220.91;;;10.51;63.16
46534;BME280;32260;52.008;4.752;2023-05-16T04:49:06;102221.81;;;10.53;63.27
46534;BME280;32260;52.008;4.752;2023-05-16T04:51:33;102228.84;;;10.54;62.99
46534;BME280;32260;52.008;4.752;2023-05-16T04:53:59;102222.69;;;10.55;63.19
46534;BME280;32260;52.008;4.752;2023-05-16T04:56:25;102226.22;;;10.57;63.08
46534;BME280;32260;52.008;4.752;2023-05-16T04:58:52;102232.44;;;10.59;63.20
46534;BME280;32260;52.008;4.752;2023-05-16T05:01:19;102220.91;;;10.60;63.23
46534;BME280;32260;52.008;4.752;2023-05-16T05:03:45;102230.66;;;10.64;63.33
46534;BME280;32260;52.008;4.752;2023-05-16T05:06:12;102234.19;;;10.66;63.25
46534;BME280;32260;52.008;4.752;2023-05-16T05:08:38;102234.22;;;10.70;63.06
46534;BME280;32260;52.008;4.752;2023-05-16T05:11:04;102236.84;;;10.73;62.86
46534;BME280;32260;52.008;4.752;2023-05-16T05:13:30;102236.84;;;10.73;62.95
46534;BME280;32260;52.008;4.752;2023-05-16T05:15:56;102244.81;;;10.76;62.91
46534;BME280;32260;52.008;4.752;2023-05-16T05:18:22;102249.25;;;10.78;62.75
46534;BME280;32260;52.008;4.752;2023-05-16T05:20:48;102245.72;;;10.81;62.69
46534;BME280;32260;52.008;4.752;2023-05-16T05:23:15;102250.13;;;10.85;62.93
46534;BME280;32260;52.008;4.752;2023-05-16T05:25:41;102247.50;;;10.88;62.63
46534;BME280;32260;52.008;4.752;2023-05-16T05:28:07;102250.13;;;10.93;63.01
46534;BME280;32260;52.008;4.752;2023-05-16T05:30:33;102242.19;;;10.97;62.96
46534;BME280;32260;52.008;4.752;2023-05-16T05:32:59;102243.06;;;11.03;62.71
46534;BME280;32260;52.008;4.752;2023-05-16T05:35:25;102252.81;;;11.08;62.62
46534;BME280;32260;52.008;4.752;2023-05-16T05:37:51;102252.81;;;11.13;62.58
46534;BME280;32260;52.008;4.752;2023-05-16T05:40:18;102253.72;;;11.16;62.80
46534;BME280;32260;52.008;4.752;2023-05-16T05:42:44;102259.91;;;11.23;62.56
46534;BME280;32260;52.008;4.752;2023-05-16T05:45:10;102258.13;;;11.25;62.71
46534;BME280;32260;52.008;4.752;2023-05-16T05:47:37;102261.66;;;11.30;62.24
46534;BME280;32260;52.008;4.752;2023-05-16T05:50:04;102259.00;;;11.35;61.99
46534;BME280;32260;52.008;4.752;2023-05-16T05:52:30;102257.22;;;11.39;62.65
46534;BME280;32260;52.008;4.752;2023-05-16T05:54:56;102261.66;;;11.46;62.45
46534;BME280;32260;52.008;4.752;2023-05-16T05:57:24;102274.00;;;11.50;62.03
46534;BME280;32260;52.008;4.752;2023-05-16T05:59:50;102256.34;;;11.52;61.85
46534;BME280;32260;52.008;4.752;2023-05-16T06:02:17;102268.72;;;11.58;61.96
46534;BME280;32260;52.008;4.752;2023-05-16T06:04:43;102267.81;;;11.65;62.01
46534;BME280;32260;52.008;4.752;2023-05-16T06:07:10;102274.00;;;11.72;62.26
46534;BME280;32260;52.008;4.752;2023-05-16T06:09:36;102268.69;;;11.78;61.67
46534;BME280;32260;52.008;4.752;2023-05-16T06:12:02;102271.31;;;11.81;61.79
46534;BME280;32260;52.008;4.752;2023-05-16T06:14:29;102265.13;;;11.87;61.58
46534;BME280;32260;52.008;4.752;2023-05-16T06:16:55;102265.09;;;11.94;61.92
46534;BME280;32260;52.008;4.752;2023-05-16T06:19:21;102279.28;;;12.00;61.35
46534;BME280;32260;52.008;4.752;2023-05-16T06:21:47;102270.41;;;12.05;61.26
46534;BME280;32260;52.008;4.752;2023-05-16T06:24:13;102270.34;;;12.16;61.25
46534;BME280;32260;52.008;4.752;2023-05-16T06:26:39;102271.22;;;12.26;60.86
46534;BME280;32260;52.008;4.752;2023-05-16T06:29:05;102269.34;;;12.43;60.78
46534;BME280;32260;52.008;4.752;2023-05-16T06:31:32;102260.44;;;12.57;61.04
46534;BME280;32260;52.008;4.752;2023-05-16T06:33:58;102270.13;;;12.66;60.77
46534;BME280;32260;52.008;4.752;2023-05-16T06:36:24;102278.09;;;12.66;59.96
46534;BME280;32260;52.008;4.752;2023-05-16T06:38:50;102271.94;;;12.64;59.88
46534;BME280;32260;52.008;4.752;2023-05-16T06:41:16;102279.00;;;12.63;60.22
46534;BME280;32260;52.008;4.752;2023-05-16T06:43:42;102280.84;;;12.56;59.65
46534;BME280;32260;52.008;4.752;2023-05-16T06:46:08;102288.75;;;12.61;60.25
46534;BME280;32260;52.008;4.752;2023-05-16T06:48:34;102287.91;;;12.60;59.33
46534;BME280;32260;52.008;4.752;2023-05-16T06:51:00;102284.34;;;12.66;59.46
46534;BME280;32260;52.008;4.752;2023-05-16T06:53:26;102292.22;;;12.80;59.53
46534;BME280;32260;52.008;4.752;2023-05-16T06:55:52;102285.94;;;12.90;59.72
46534;BME280;32260;52.008;4.752;2023-05-16T06:58:19;102291.19;;;13.01;59.39
46534;BME280;32260;52.008;4.752;2023-05-16T07:00:45;102298.22;;;13.11;58.44
46534;BME280;32260;52.008;4.752;2023-05-16T07:03:11;102303.47;;;13.19;58.29
46534;BME280;32260;52.008;4.752;2023-05-16T07:05:37;102295.47;;;13.22;58.33
46534;BME280;32260;52.008;4.752;2023-05-16T07:08:04;102291.03;;;13.26;57.68
46534;BME280;32260;52.008;4.752;2023-05-16T07:10:30;102293.63;;;13.29;57.91
46534;BME280;32260;52.008;4.752;2023-05-16T07:12:56;102298.97;;;13.29;57.17
46534;BME280;32260;52.008;4.752;2023-05-16T07:15:23;102295.38;;;13.32;57.50
46534;BME280;32260;52.008;4.752;2023-05-16T07:17:49;102293.63;;;13.32;57.57
46534;BME280;32260;52.008;4.752;2023-05-16T07:20:15;102305.19;;;13.26;57.20
46534;BME280;32260;52.008;4.752;2023-05-16T07:22:41;102303.44;;;13.25;57.43
46534;BME280;32260;52.008;4.752;2023-05-16T07:25:08;102299.88;;;13.26;57.39
46534;BME280;32260;52.008;4.752;2023-05-16T07:27:38;102298.97;;;13.32;56.90
46534;BME280;32260;52.008;4.752;2023-05-16T07:30:07;102310.41;;;13.42;57.28
46534;BME280;32260;52.008;4.752;2023-05-16T07:32:34;102303.31;;;13.47;55.72
46534;BME280;32260;52.008;4.752;2023-05-16T07:35:00;102294.31;;;13.59;55.73
46534;BME280;32260;52.008;4.752;2023-05-16T07:37:26;102304.84;;;13.71;56.04
46534;BME280;32260;52.008;4.752;2023-05-16T07:39:52;102300.41;;;13.73;54.99
46534;BME280;32260;52.008;4.752;2023-05-16T07:42:18;102303.06;;;13.73;54.64
46534;BME280;32260;52.008;4.752;2023-05-16T07:44:45;102299.44;;;13.79;55.24
46534;BME280;32260;52.008;4.752;2023-05-16T07:47:11;102303.78;;;13.88;55.41
46534;BME280;32260;52.008;4.752;2023-05-16T07:49:37;102302.81;;;13.98;55.25
46534;BME280;32260;52.008;4.752;2023-05-16T07:52:04;102309.78;;;14.10;55.20
46534;BME280;32260;52.008;4.752;2023-05-16T07:54:31;102307.00;;;14.18;54.98
46534;BME280;32260;52.008;4.752;2023-05-16T07:56:58;102307.81;;;14.26;54.77
46534;BME280;32260;52.008;4.752;2023-05-16T07:59:24;102309.59;;;14.26;53.82
46534;BME280;32260;52.008;4.752;2023-05-16T08:01:51;102305.13;;;14.28;54.01
46534;BME280;32260;52.008;4.752;2023-05-16T08:04:17;102309.63;;;14.22;53.40
46534;BME280;32260;52.008;4.752;2023-05-16T08:06:43;102312.25;;;14.24;52.89
46534;BME280;32260;52.008;4.752;2023-05-16T08:09:09;102305.97;;;14.31;52.68
46534;BME280;32260;52.008;4.752;2023-05-16T08:11:35;102305.84;;;14.42;52.74
46534;BME280;32260;52.008;4.752;2023-05-16T08:14:03;102316.38;;;14.51;52.89
46534;BME280;32260;52.008;4.752;2023-05-16T08:16:29;102318.16;;;14.52;52.55
46534;BME280;32260;52.008;4.752;2023-05-16T08:18:56;102312.88;;;14.49;52.23
46534;BME280;32260;52.008;4.752;2023-05-16T08:21:22;102313.72;;;14.53;52.64
46534;BME280;32260;52.008;4.752;2023-05-16T08:23:48;102319.03;;;14.51;52.88
46534;BME280;32260;52.008;4.752;2023-05-16T08:26:14;102316.44;;;14.48;52.41
46534;BME280;32260;52.008;4.752;2023-05-16T08:28:41;102314.75;;;14.41;52.63
46534;BME280;32260;52.008;4.752;2023-05-16T08:31:08;102321.94;;;14.34;51.95
46534;BME280;32260;52.008;4.752;2023-05-16T08:33:34;102320.94;;;14.43;52.82
46534;BME280;32260;52.008;4.752;2023-05-16T08:36:00;102333.22;;;14.55;51.64
46534;BME280;32260;52.008;4.752;2023-05-16T08:38:26;102315.31;;;14.69;50.83
46534;BME280;32260;52.008;4.752;2023-05-16T08:40:52;102316.81;;;14.87;51.46
46534;BME280;32260;52.008;4.752;2023-05-16T08:43:19;102324.69;;;14.97;51.31
46534;BME280;32260;52.008;4.752;2023-05-16T08:45:45;102324.69;;;14.97;51.33
46534;BME280;32260;52.008;4.752;2023-05-16T08:48:11;102326.47;;;14.98;51.53
46534;BME280;32260;52.008;4.752;2023-05-16T08:50:39;102320.16;;;15.02;50.99
46534;BME280;32260;52.008;4.752;2023-05-16T08:53:08;102327.28;;;15.01;50.45
46534;BME280;32260;52.008;4.752;2023-05-16T08:55:37;102322.88;;;15.00;50.47
46534;BME280;32260;52.008;4.752;2023-05-16T08:58:05;102314.78;;;15.07;50.59
46534;BME280;32260;52.008;4.752;2023-05-16T09:00:31;102326.06;;;15.23;50.31
46534;BME280;32260;52.008;4.752;2023-05-16T09:02:58;102332.13;;;15.35;49.72
46534;BME280;32260;52.008;4.752;2023-05-16T09:05:25;102322.00;;;15.55;48.99
46534;BME280;32260;52.008;4.752;2023-05-16T09:07:52;102329.81;;;15.67;48.82
46534;BME280;32260;52.008;4.752;2023-05-16T09:10:18;102322.53;;;15.74;49.18
46534;BME280;32260;52.008;4.752;2023-05-16T09:12:45;102325.19;;;15.77;48.76
46534;BME280;32260;52.008;4.752;2023-05-16T09:15:11;102326.88;;;15.82;48.17
46534;BME280;32260;52.008;4.752;2023-05-16T09:17:41;102331.16;;;15.91;48.47
46534;BME280;32260;52.008;4.752;2023-05-16T09:20:17;102333.66;;;16.02;48.38
46534;BME280;32260;52.008;4.752;2023-05-16T09:25:30;102331.84;;;16.04;47.96
46534;BME280;32260;52.008;4.752;2023-05-16T09:27:57;102337.97;;;16.09;48.27
46534;BME280;32260;52.008;4.752;2023-05-16T09:30:28;102328.81;;;16.23;48.80
46534;BME280;32260;52.008;4.752;2023-05-16T09:32:55;102331.31;;;16.30;46.88
46534;BME280;32260;52.008;4.752;2023-05-16T09:35:21;102333.91;;;16.33;47.74
46534;BME280;32260;52.008;4.752;2023-05-16T09:37:49;102333.91;;;16.33;47.54
46534;BME280;32260;52.008;4.752;2023-05-16T09:40:21;102342.63;;;16.43;47.09
46534;BME280;32260;52.008;4.752;2023-05-16T09:42:47;102339.91;;;16.46;47.10
46534;BME280;32260;52.008;4.752;2023-05-16T09:45:19;102340.81;;;16.45;46.57
46534;BME280;32260;52.008;4.752;2023-05-16T09:47:45;102340.03;;;16.40;46.80
46534;BME280;32260;52.008;4.752;2023-05-16T09:50:13;102341.59;;;16.50;46.64
46534;BME280;32260;52.008;4.752;2023-05-16T09:52:41;102350.28;;;16.62;46.27
46534;BME280;32260;52.008;4.752;2023-05-16T09:55:08;102347.69;;;16.59;45.30
46534;BME280;32260;52.008;4.752;2023-05-16T09:57:38;102355.94;;;16.48;45.91
46534;BME280;32260;52.008;4.752;2023-05-16T10:00:08;102342.75;;;16.39;46.04
46534;BME280;32260;52.008;4.752;2023-05-16T10:02:37;102346.22;;;16.42;45.99
46534;BME280;32260;52.008;4.752;2023-05-16T10:05:04;102343.53;;;16.42;45.94
46534;BME280;32260;52.008;4.752;2023-05-16T10:07:31;102347.69;;;16.57;46.38
46534;BME280;32260;52.008;4.752;2023-05-16T10:10:02;102338.38;;;16.77;46.45
46534;BME280;32260;52.008;4.752;2023-05-16T10:12:30;102337.22;;;16.89;46.23
46534;BME280;32260;52.008;4.752;2023-05-16T10:14:59;102344.41;;;16.87;45.16
46534;BME280;32260;52.008;4.752;2023-05-16T10:17:27;102345.25;;;16.89;46.06
46534;BME280;32260;52.008;4.752;2023-05-16T10:19:57;102341.66;;;16.90;45.38
46534;BME280;32260;52.008;4.752;2023-05-16T10:22:26;102343.34;;;16.95;45.05
46534;BME280;32260;52.008;4.752;2023-05-16T10:25:07;102333.22;;;17.08;44.73
46534;BME280;32260;52.008;4.752;2023-05-16T10:27:35;102330.44;;;17.13;43.63
46534;BME280;32260;52.008;4.752;2023-05-16T10:30:05;102340.13;;;17.19;43.66
46534;BME280;32260;52.008;4.752;2023-05-16T10:32:32;102336.41;;;17.26;44.83
46534;BME280;32260;52.008;4.752;2023-05-16T10:34:59;102335.53;;;17.24;43.34
46534;BME280;32260;52.008;4.752;2023-05-16T10:37:30;102330.81;;;17.35;43.83
46534;BME280;32260;52.008;4.752;2023-05-16T10:39:58;102328.78;;;17.45;43.40
46534;BME280;32260;52.008;4.752;2023-05-16T10:42:25;102324.81;;;17.60;44.05
46534;BME280;32260;52.008;4.752;2023-05-16T10:44:55;102331.78;;;17.67;43.64
46534;BME280;32260;52.008;4.752;2023-05-16T10:47:33;102322.50;;;17.46;42.42
46534;BME280;32260;52.008;4.752;2023-05-16T10:49:59;102322.63;;;17.41;42.62
46534;BME280;32260;52.008;4.752;2023-05-16T10:52:33;102321.53;;;17.49;41.80
46534;BME280;32260;52.008;4.752;2023-05-16T10:55:02;102325.91;;;17.53;41.64
46534;BME280;32260;52.008;4.752;2023-05-16T10:57:32;102328.41;;;17.59;41.74
46534;BME280;32260;52.008;4.752;2023-05-16T10:59:59;102324.97;;;17.54;41.56
46534;BME280;32260;52.008;4.752;2023-05-16T11:02:29;102331.50;;;17.43;42.14
46534;BME280;32260;52.008;4.752;2023-05-16T11:04:59;102332.25;;;17.49;42.38
46534;BME280;32260;52.008;4.752;2023-05-16T11:07:32;102334.66;;;17.59;42.68
46534;BME280;32260;52.008;4.752;2023-05-16T11:13:25;102337.16;;;17.67;42.25
46534;BME280;32260;52.008;4.752;2023-05-16T11:15:51;102331.66;;;17.72;41.52
46534;BME280;32260;52.008;4.752;2023-05-16T11:18:49;102331.38;;;17.83;42.09
46534;BME280;32260;52.008;4.752;2023-05-16T11:21:21;102323.94;;;17.94;41.88
46534;BME280;32260;52.008;4.752;2023-05-16T11:25:10;102336.19;;;18.04;41.10
46534;BME280;32260;52.008;4.752;2023-05-16T11:26:58;102330.63;;;18.10;41.29
46534;BME280;32260;52.008;4.752;2023-05-16T11:29:32;102332.97;;;18.24;41.56
46534;BME280;32260;52.008;4.752;2023-05-16T11:32:03;102344.03;;;18.43;41.18
46534;BME280;32260;52.008;4.752;2023-05-16T11:34:31;102333.00;;;18.53;40.18
46534;BME280;32260;52.008;4.752;2023-05-16T11:37:02;102332.66;;;18.65;41.16
46534;BME280;32260;52.008;4.752;2023-05-16T11:39:30;102333.59;;;18.64;40.94
46534;BME280;32260;52.008;4.752;2023-05-16T11:41:59;102337.22;;;18.62;41.04
46534;BME280;32260;52.008;4.752;2023-05-16T11:44:25;102338.06;;;18.64;40.67
46534;BME280;32260;52.008;4.752;2023-05-16T11:46:55;102334.34;;;18.69;40.34
46534;BME280;32260;52.008;4.752;2023-05-16T11:49:21;102332.66;;;18.65;40.79
46534;BME280;32260;52.008;4.752;2023-05-16T11:51:47;102337.16;;;18.65;40.51
46534;BME280;32260;52.008;4.752;2023-05-16T11:54:14;102340.69;;;18.65;40.11
46534;BME280;32260;52.008;4.752;2023-05-16T11:56:41;102336.53;;;18.55;40.35
46534;BME280;32260;52.008;4.752;2023-05-16T11:59:07;102335.06;;;18.45;40.17
46534;BME280;32260;52.008;4.752;2023-05-16T12:01:40;102337.63;;;18.49;40.45
46534;BME280;32260;52.008;4.752;2023-05-16T12:04:08;102342.88;;;18.52;40.17
46534;BME280;32260;52.008;4.752;2023-05-16T12:06:35;102333.13;;;18.50;39.68
46534;BME280;32260;52.008;4.752;2023-05-16T12:11:36;102331.16;;;18.55;39.22
46534;BME280;32260;52.008;4.752;2023-05-16T12:14:03;102341.97;;;18.53;38.97
46534;BME280;32260;52.008;4.752;2023-05-16T12:16:30;102335.69;;;18.54;39.21
46534;BME280;32260;52.008;4.752;2023-05-16T12:18:58;102341.91;;;18.55;39.16
46534;BME280;32260;52.008;4.752;2023-05-16T12:21:24;102338.38;;;18.53;39.53
46534;BME280;32260;52.008;4.752;2023-05-16T12:23:54;102341.28;;;18.45;39.07
46534;BME280;32260;52.008;4.752;2023-05-16T12:26:26;102344.78;;;18.49;38.95
46534;BME280;32260;52.008;4.752;2023-05-16T12:28:57;102336.41;;;18.59;39.15
46534;BME280;32260;52.008;4.752;2023-05-16T12:31:26;102329.41;;;18.54;38.77
46534;BME280;32260;52.008;4.752;2023-05-16T12:33:53;102329.50;;;18.51;38.91
46534;BME280;32260;52.008;4.752;2023-05-16T12:36:21;102332.03;;;18.57;38.13
46534;BME280;32260;52.008;4.752;2023-05-16T12:38:47;102336.06;;;18.70;38.41
46534;BME280;32260;52.008;4.752;2023-05-16T12:41:22;102335.59;;;18.86;36.97
46534;BME280;32260;52.008;4.752;2023-05-16T12:43:49;102340.97;;;18.86;36.56
46534;BME280;32260;52.008;4.752;2023-05-16T12:46:15;102341.16;;;18.80;36.52
46534;BME280;32260;52.008;4.752;2023-05-16T12:48:41;102334.16;;;18.75;36.74
46534;BME280;32260;52.008;4.752;2023-05-16T12:51:12;102342.38;;;18.69;38.05
46534;BME280;32260;52.008;4.752;2023-05-16T12:53:44;102337.63;;;18.78;37.98
46534;BME280;32260;52.008;4.752;2023-05-16T12:56:11;102329.16;;;18.93;37.92
46534;BME280;32260;52.008;4.752;2023-05-16T12:58:38;102333.09;;;19.10;37.41
46534;BME280;32260;52.008;4.752;2023-05-16T13:01:05;102333.56;;;19.24;37.58
46534;BME280;32260;52.008;4.752;2023-05-16T13:03:32;102332.97;;;19.41;37.36
46534;BME280;32260;52.008;4.752;2023-05-16T13:05:59;102330.97;;;19.48;35.98
46534;BME280;32260;52.008;4.752;2023-05-16T13:08:26;102334.38;;;19.53;35.95
46534;BME280;32260;52.008;4.752;2023-05-16T13:10:53;102332.19;;;19.64;35.93
46534;BME280;32260;52.008;4.752;2023-05-16T13:13:19;102332.56;;;19.79;35.70